sensor_id;sensor_type;location;lat;lon;timestamp;temperature;humidity
11005;DHT22;5555;59.622;16.556;2023-05-07T00:01:51;3.20;99.90
11005;DHT22;5555;59.622;16.556;2023-05-07T00:04:17;3.10;99.90
11005;DHT22;5555;59.622;16.556;2023-05-07T00:06:42;3.00;99.90
11005;DHT22;5555;59.622;16.556;2023-05-07T00:09:08;2.90;99.90
11005;DHT22;5555;59.622;16.556;2023-05-07T00:11:34;2.80;99.90
11005;DHT22;5555;59.622;16.556;2023-05-07T00:14:00;2.70;99.90
11005;DHT22;5555;59.622;16.556;2023-05-07T00:16:25;2.50;99.90
11005;DHT22;5555;59.622;16.556;2023-05-07T00:18:52;2.50;99.90
11005;DHT22;5555;59.622;16.556;2023-05-07T00:21:17;2.40;99.90
11005;DHT22;5555;59.622;16.556;2023-05-07T00:23:43;2.40;99.90
11005;DHT22;5555;59.622;16.556;2023-05-07T00:26:09;2.30;99.90
11005;DHT22;5555;59.622;16.556;2023-05-07T00:28:34;2.20;99.90
11005;DHT22;5555;59.622;16.556;2023-05-07T00:31:00;2.10;99.90
11005;DHT22;5555;59.622;16.556;2023-05-07T00:33:25;2.10;99.90
11005;DHT22;5555;59.622;16.556;2023-05-07T00:35:52;2.10;99.90
11005;DHT22;5555;59.622;16.556;2023-05-07T00:38:19;2.20;99.90
11005;DHT22;5555;59.622;16.556;2023-05-07T00:40:45;2.20;99.90
11005;DHT22;5555;59.622;16.556;2023-05-07T00:43:11;2.10;99.90
11005;DHT22;5555;59.622;16.556;2023-05-07T00:45:38;1.90;99.90
11005;DHT22;5555;59.622;16.556;2023-05-07T00:48:04;1.80;99.90
11005;DHT22;5555;59.622;16.556;2023-05-07T00:50:31;1.80;99.90
11005;DHT22;5555;59.622;16.556;2023-05-07T00:52:58;1.80;99.90
11005;DHT22;5555;59.622;16.556;2023-05-07T00:55:24;1.80;99.90
11005;DHT22;5555;59.622;16.556;2023-05-07T00:57:51;1.80;99.90
11005;DHT22;5555;59.622;16.556;2023-05-07T01:00:17;1.80;99.90
11005;DHT22;5555;59.622;16.556;2023-05-07T01:02:43;1.70;99.90
11005;DHT22;5555;59.622;16.556;2023-05-07T01:05:13;1.70;99.90
11005;DHT22;5555;59.622;16.556;2023-05-07T01:07:40;1.60;99.90
11005;DHT22;5555;59.622;16.556;2023-05-07T01:10:07;1.50;99.90
11005;DHT22;5555;59.622;16.556;2023-05-07T01:12:35;1.40;99.90
11005;DHT22;5555;59.622;16.556;2023-05-07T01:15:03;1.30;99.90
11005;DHT22;5555;59.622;16.556;2023-05-07T01:17:29;1.40;99.90
11005;DHT22;5555;59.622;16.556;2023-05-07T01:19:58;1.50;99.90
11005;DHT22;5555;59.622;16.556;2023-05-07T01:22:34;1.40;99.90
11005;DHT22;5555;59.622;16.556;2023-05-07T01:25:00;1.40;99.90
11005;DHT22;5555;59.622;16.556;2023-05-07T01:27:27;1.30;99.90
11005;DHT22;5555;59.622;16.556;2023-05-07T01:29:53;1.40;99.90
11005;DHT22;5555;59.622;16.556;2023-05-07T01:35:03;1.40;99.90
11005;DHT22;5555;59.622;16.556;2023-05-07T01:37:30;1.40;99.90
11005;DHT22;5555;59.622;16.556;2023-05-07T01:39:56;1.30;99.90
11005;DHT22;5555;59.622;16.556;2023-05-07T01:42:22;1.30;99.90
11005;DHT22;5555;59.622;16.556;2023-05-07T01:44:48;1.20;99.90
11005;DHT22;5555;59.622;16.556;2023-05-07T01:47:14;1.10;99.90
11005;DHT22;5555;59.622;16.556;2023-05-07T01:49:41;1.10;99.90
11005;DHT22;5555;59.622;16.556;2023-05-07T01:52:09;1.10;99.90
11005;DHT22;5555;59.622;16.556;2023-05-07T01:54:35;1.10;99.90
11005;DHT22;5555;59.622;16.556;2023-05-07T01:57:01;1.10;99.90
11005;DHT22;5555;59.622;16.556;2023-05-07T01:59:26;1.10;99.90
11005;DHT22;5555;59.622;16.556;2023-05-07T02:01:52;1.00;99.90
11005;DHT22;5555;59.622;16.556;2023-05-07T02:04:17;1.10;99.90
11005;DHT22;5555;59.622;16.556;2023-05-07T02:06:43;1.10;99.90
11005;DHT22;5555;59.622;16.556;2023-05-07T02:09:09;1.10;99.90
11005;DHT22;5555;59.622;16.556;2023-05-07T02:11:34;1.10;99.90
11005;DHT22;5555;59.622;16.556;2023-05-07T02:14:00;1.10;99.90
11005;DHT22;5555;59.622;16.556;2023-05-07T02:16:26;1.00;99.90
11005;DHT22;5555;59.622;16.556;2023-05-07T02:18:51;1.00;99.90
11005;DHT22;5555;59.622;16.556;2023-05-07T02:21:17;0.90;99.90
11005;DHT22;5555;59.622;16.556;2023-05-07T02:23:43;0.80;99.90
11005;DHT22;5555;59.622;16.556;2023-05-07T02:26:08;0.80;99.90
11005;DHT22;5555;59.622;16.556;2023-05-07T02:28:34;0.90;99.90
11005;DHT22;5555;59.622;16.556;2023-05-07T02:31:03;0.80;99.90
11005;DHT22;5555;59.622;16.556;2023-05-07T02:33:29;0.80;99.90
11005;DHT22;5555;59.622;16.556;2023-05-07T02:35:55;0.80;99.90
11005;DHT22;5555;59.622;16.556;2023-05-07T02:38:20;0.70;99.90
11005;DHT22;5555;59.622;16.556;2023-05-07T02:40:46;0.70;99.90
11005;DHT22;5555;59.622;16.556;2023-05-07T02:43:11;0.80;99.90
11005;DHT22;5555;59.622;16.556;2023-05-07T02:45:37;0.80;99.90
11005;DHT22;5555;59.622;16.556;2023-05-07T02:48:03;0.70;99.90
11005;DHT22;5555;59.622;16.556;2023-05-07T02:50:29;0.70;99.90
11005;DHT22;5555;59.622;16.556;2023-05-07T02:52:55;0.70;99.90
11005;DHT22;5555;59.622;16.556;2023-05-07T02:55:21;0.80;99.90
11005;DHT22;5555;59.622;16.556;2023-05-07T02:57:46;0.80;99.90
11005;DHT22;5555;59.622;16.556;2023-05-07T03:00:14;0.80;99.90
11005;DHT22;5555;59.622;16.556;2023-05-07T03:02:40;0.80;99.90
11005;DHT22;5555;59.622;16.556;2023-05-07T03:05:06;0.80;99.90
11005;DHT22;5555;59.622;16.556;2023-05-07T03:07:32;0.70;99.90
11005;DHT22;5555;59.622;16.556;2023-05-07T03:09:58;0.70;99.90
11005;DHT22;5555;59.622;16.556;2023-05-07T03:12:23;0.70;99.90
11005;DHT22;5555;59.622;16.556;2023-05-07T03:14:49;0.60;99.90
11005;DHT22;5555;59.622;16.556;2023-05-07T03:17:15;0.60;99.90
11005;DHT22;5555;59.622;16.556;2023-05-07T03:19:41;0.50;99.90
11005;DHT22;5555;59.622;16.556;2023-05-07T03:22:07;0.40;99.90
11005;DHT22;5555;59.622;16.556;2023-05-07T03:24:32;0.40;99.90
11005;DHT22;5555;59.622;16.556;2023-05-07T03:26:58;0.40;99.90
11005;DHT22;5555;59.622;16.556;2023-05-07T03:29:23;0.50;99.90
11005;DHT22;5555;59.622;16.556;2023-05-07T03:31:49;0.50;99.90
11005;DHT22;5555;59.622;16.556;2023-05-07T03:34:15;0.50;99.90
11005;DHT22;5555;59.622;16.556;2023-05-07T03:36:42;0.50;99.90
11005;DHT22;5555;59.622;16.556;2023-05-07T03:39:08;0.50;99.90
11005;DHT22;5555;59.622;16.556;2023-05-07T03:41:33;0.60;99.90
11005;DHT22;5555;59.622;16.556;2023-05-07T03:43:59;0.60;99.90
11005;DHT22;5555;59.622;16.556;2023-05-07T03:46:25;0.60;99.90
11005;DHT22;5555;59.622;16.556;2023-05-07T03:48:51;0.60;99.90
11005;DHT22;5555;59.622;16.556;2023-05-07T03:51:17;0.70;99.90
11005;DHT22;5555;59.622;16.556;2023-05-07T03:53:43;0.70;99.90
11005;DHT22;5555;59.622;16.556;2023-05-07T03:56:08;0.80;99.90
11005;DHT22;5555;59.622;16.556;2023-05-07T03:58:34;0.90;99.90
11005;DHT22;5555;59.622;16.556;2023-05-07T04:01:00;1.00;99.90
11005;DHT22;5555;59.622;16.556;2023-05-07T04:03:26;1.10;99.90
11005;DHT22;5555;59.622;16.556;2023-05-07T04:05:52;1.20;99.90
11005;DHT22;5555;59.622;16.556;2023-05-07T04:08:17;1.30;99.90
11005;DHT22;5555;59.622;16.556;2023-05-07T04:10:43;1.50;99.90
11005;DHT22;5555;59.622;16.556;2023-05-07T04:13:08;1.60;99.90
11005;DHT22;5555;59.622;16.556;2023-05-07T04:15:35;1.70;99.90
11005;DHT22;5555;59.622;16.556;2023-05-07T04:18:01;1.90;99.90
11005;DHT22;5555;59.622;16.556;2023-05-07T04:20:27;2.10;99.90
11005;DHT22;5555;59.622;16.556;2023-05-07T04:22:52;2.20;99.90
11005;DHT22;5555;59.622;16.556;2023-05-07T04:25:18;2.40;99.90
11005;DHT22;5555;59.622;16.556;2023-05-07T04:27:44;2.50;99.90
11005;DHT22;5555;59.622;16.556;2023-05-07T04:30:10;2.70;99.90
11005;DHT22;5555;59.622;16.556;2023-05-07T04:32:36;2.90;99.90
11005;DHT22;5555;59.622;16.556;2023-05-07T04:35:03;3.00;99.90
11005;DHT22;5555;59.622;16.556;2023-05-07T04:37:28;3.20;99.90
11005;DHT22;5555;59.622;16.556;2023-05-07T04:39:54;3.30;99.90
11005;DHT22;5555;59.622;16.556;2023-05-07T04:42:20;3.40;99.90
11005;DHT22;5555;59.622;16.556;2023-05-07T04:44:45;3.50;99.90
11005;DHT22;5555;59.622;16.556;2023-05-07T04:47:11;3.60;99.90
11005;DHT22;5555;59.622;16.556;2023-05-07T04:49:40;3.70;99.90
11005;DHT22;5555;59.622;16.556;2023-05-07T04:52:06;3.80;99.90
11005;DHT22;5555;59.622;16.556;2023-05-07T04:54:31;3.90;99.90
11005;DHT22;5555;59.622;16.556;2023-05-07T04:56:57;4.00;99.90
11005;DHT22;5555;59.622;16.556;2023-05-07T04:59:22;4.00;99.90
11005;DHT22;5555;59.622;16.556;2023-05-07T05:01:48;4.10;99.90
11005;DHT22;5555;59.622;16.556;2023-05-07T05:04:14;4.20;99.90
11005;DHT22;5555;59.622;16.556;2023-05-07T05:06:39;4.30;99.90
11005;DHT22;5555;59.622;16.556;2023-05-07T05:09:05;4.40;99.90
11005;DHT22;5555;59.622;16.556;2023-05-07T05:11:31;4.40;99.90
11005;DHT22;5555;59.622;16.556;2023-05-07T05:13:59;4.50;99.90
11005;DHT22;5555;59.622;16.556;2023-05-07T05:16:25;4.50;99.90
11005;DHT22;5555;59.622;16.556;2023-05-07T05:18:51;4.50;99.90
11005;DHT22;5555;59.622;16.556;2023-05-07T05:21:17;4.60;99.90
11005;DHT22;5555;59.622;16.556;2023-05-07T05:23:43;4.60;99.90
11005;DHT22;5555;59.622;16.556;2023-05-07T05:26:08;4.70;99.90
11005;DHT22;5555;59.622;16.556;2023-05-07T05:28:34;4.80;99.90
11005;DHT22;5555;59.622;16.556;2023-05-07T05:31:00;4.80;99.90
11005;DHT22;5555;59.622;16.556;2023-05-07T05:33:25;4.90;99.90
11005;DHT22;5555;59.622;16.556;2023-05-07T05:35:51;5.10;99.90
11005;DHT22;5555;59.622;16.556;2023-05-07T05:38:17;5.30;99.90
11005;DHT22;5555;59.622;16.556;2023-05-07T05:40:42;5.30;99.90
11005;DHT22;5555;59.622;16.556;2023-05-07T05:43:08;5.30;99.90
11005;DHT22;5555;59.622;16.556;2023-05-07T05:45:33;5.30;99.90
11005;DHT22;5555;59.622;16.556;2023-05-07T05:47:59;5.30;99.90
11005;DHT22;5555;59.622;16.556;2023-05-07T05:50:25;5.30;99.90
11005;DHT22;5555;59.622;16.556;2023-05-07T05:52:51;5.40;99.90
11005;DHT22;5555;59.622;16.556;2023-05-07T05:55:16;5.70;99.90
11005;DHT22;5555;59.622;16.556;2023-05-07T05:57:42;5.70;99.90
11005;DHT22;5555;59.622;16.556;2023-05-07T06:00:08;5.90;99.90
11005;DHT22;5555;59.622;16.556;2023-05-07T06:02:34;6.10;99.90
11005;DHT22;5555;59.622;16.556;2023-05-07T06:05:00;6.30;99.90
11005;DHT22;5555;59.622;16.556;2023-05-07T06:07:25;6.30;99.90
11005;DHT22;5555;59.622;16.556;2023-05-07T06:09:51;6.30;99.90
11005;DHT22;5555;59.622;16.556;2023-05-07T06:12:17;6.30;99.90
11005;DHT22;5555;59.622;16.556;2023-05-07T06:14:43;6.40;99.90
11005;DHT22;5555;59.622;16.556;2023-05-07T06:17:09;6.40;99.90
11005;DHT22;5555;59.622;16.556;2023-05-07T06:19:34;6.50;99.90
11005;DHT22;5555;59.622;16.556;2023-05-07T06:22:00;6.40;99.90
11005;DHT22;5555;59.622;16.556;2023-05-07T06:24:27;6.30;99.90
11005;DHT22;5555;59.622;16.556;2023-05-07T06:26:52;6.40;99.90
11005;DHT22;5555;59.622;16.556;2023-05-07T06:29:18;6.40;99.90
11005;DHT22;5555;59.622;16.556;2023-05-07T06:31:44;6.60;99.90
11005;DHT22;5555;59.622;16.556;2023-05-07T06:34:10;6.70;99.90
11005;DHT22;5555;59.622;16.556;2023-05-07T06:36:42;7.00;99.90
11005;DHT22;5555;59.622;16.556;2023-05-07T06:39:07;7.20;99.90
11005;DHT22;5555;59.622;16.556;2023-05-07T06:41:33;7.30;99.90
11005;DHT22;5555;59.622;16.556;2023-05-07T06:43:59;7.30;99.90
11005;DHT22;5555;59.622;16.556;2023-05-07T06:46:25;7.10;99.90
11005;DHT22;5555;59.622;16.556;2023-05-07T06:48:50;7.20;99.90
11005;DHT22;5555;59.622;16.556;2023-05-07T06:51:17;7.30;99.90
11005;DHT22;5555;59.622;16.556;2023-05-07T06:53:43;7.40;99.90
11005;DHT22;5555;59.622;16.556;2023-05-07T06:56:08;7.60;99.90
11005;DHT22;5555;59.622;16.556;2023-05-07T06:58:34;7.50;99.90
11005;DHT22;5555;59.622;16.556;2023-05-07T07:00:59;7.70;99.90
11005;DHT22;5555;59.622;16.556;2023-05-07T07:03:25;7.80;99.90
11005;DHT22;5555;59.622;16.556;2023-05-07T07:05:54;7.60;99.90
11005;DHT22;5555;59.622;16.556;2023-05-07T07:08:21;7.60;99.90
11005;DHT22;5555;59.622;16.556;2023-05-07T07:10:47;7.70;99.90
11005;DHT22;5555;59.622;16.556;2023-05-07T07:13:13;7.60;99.90
11005;DHT22;5555;59.622;16.556;2023-05-07T07:15:39;7.60;99.90
11005;DHT22;5555;59.622;16.556;2023-05-07T07:18:05;7.80;99.90
11005;DHT22;5555;59.622;16.556;2023-05-07T07:20:31;7.60;99.90
11005;DHT22;5555;59.622;16.556;2023-05-07T07:22:56;7.70;99.90
11005;DHT22;5555;59.622;16.556;2023-05-07T07:25:22;7.80;99.90
11005;DHT22;5555;59.622;16.556;2023-05-07T07:27:49;7.90;99.90
11005;DHT22;5555;59.622;16.556;2023-05-07T07:30:15;8.10;99.90
11005;DHT22;5555;59.622;16.556;2023-05-07T07:32:40;8.20;99.90
11005;DHT22;5555;59.622;16.556;2023-05-07T07:35:06;8.30;99.90
11005;DHT22;5555;59.622;16.556;2023-05-07T07:37:32;8.40;99.90
11005;DHT22;5555;59.622;16.556;2023-05-07T07:39:58;8.40;99.90
11005;DHT22;5555;59.622;16.556;2023-05-07T07:42:23;8.00;99.90
11005;DHT22;5555;59.622;16.556;2023-05-07T07:44:49;8.40;99.90
11005;DHT22;5555;59.622;16.556;2023-05-07T07:47:15;8.60;99.90
11005;DHT22;5555;59.622;16.556;2023-05-07T07:49:41;8.80;99.90
11005;DHT22;5555;59.622;16.556;2023-05-07T07:52:06;8.70;99.90
11005;DHT22;5555;59.622;16.556;2023-05-07T07:54:32;8.60;99.90
11005;DHT22;5555;59.622;16.556;2023-05-07T07:56:58;8.50;99.90
11005;DHT22;5555;59.622;16.556;2023-05-07T07:59:23;8.90;99.90
11005;DHT22;5555;59.622;16.556;2023-05-07T08:01:49;9.00;99.90
11005;DHT22;5555;59.622;16.556;2023-05-07T08:04:15;8.90;99.90
11005;DHT22;5555;59.622;16.556;2023-05-07T08:06:41;9.20;99.90
11005;DHT22;5555;59.622;16.556;2023-05-07T08:09:07;9.40;99.90
11005;DHT22;5555;59.622;16.556;2023-05-07T08:11:33;9.10;99.90
11005;DHT22;5555;59.622;16.556;2023-05-07T08:13:59;9.30;99.90
11005;DHT22;5555;59.622;16.556;2023-05-07T08:16:25;9.30;99.90
11005;DHT22;5555;59.622;16.556;2023-05-07T08:18:51;9.40;99.90
11005;DHT22;5555;59.622;16.556;2023-05-07T08:21:17;9.40;99.90
11005;DHT22;5555;59.622;16.556;2023-05-07T08:23:42;9.40;99.90
11005;DHT22;5555;59.622;16.556;2023-05-07T08:26:08;9.50;99.90
11005;DHT22;5555;59.622;16.556;2023-05-07T08:28:34;9.60;99.90
11005;DHT22;5555;59.622;16.556;2023-05-07T08:31:00;9.60;99.90
11005;DHT22;5555;59.622;16.556;2023-05-07T08:33:26;9.70;99.90
11005;DHT22;5555;59.622;16.556;2023-05-07T08:35:52;9.60;99.90
11005;DHT22;5555;59.622;16.556;2023-05-07T08:38:17;9.60;99.90
11005;DHT22;5555;59.622;16.556;2023-05-07T08:40:43;9.80;99.90
11005;DHT22;5555;59.622;16.556;2023-05-07T08:43:12;9.90;99.90
11005;DHT22;5555;59.622;16.556;2023-05-07T08:45:39;10.00;99.90
11005;DHT22;5555;59.622;16.556;2023-05-07T08:48:09;10.20;99.90
11005;DHT22;5555;59.622;16.556;2023-05-07T08:50:39;10.10;99.90
11005;DHT22;5555;59.622;16.556;2023-05-07T08:53:05;10.00;99.90
11005;DHT22;5555;59.622;16.556;2023-05-07T08:55:31;10.30;99.90
11005;DHT22;5555;59.622;16.556;2023-05-07T08:57:58;10.50;99.90
11005;DHT22;5555;59.622;16.556;2023-05-07T09:00:25;10.50;99.90
11005;DHT22;5555;59.622;16.556;2023-05-07T09:02:51;10.40;99.90
11005;DHT22;5555;59.622;16.556;2023-05-07T09:05:17;10.40;99.90
11005;DHT22;5555;59.622;16.556;2023-05-07T09:07:43;10.50;99.90
11005;DHT22;5555;59.622;16.556;2023-05-07T09:10:08;10.60;99.90
11005;DHT22;5555;59.622;16.556;2023-05-07T09:12:34;10.60;99.90
11005;DHT22;5555;59.622;16.556;2023-05-07T09:15:01;10.80;99.90
11005;DHT22;5555;59.622;16.556;2023-05-07T09:17:28;10.90;99.90
11005;DHT22;5555;59.622;16.556;2023-05-07T09:19:54;11.00;99.90
11005;DHT22;5555;59.622;16.556;2023-05-07T09:22:19;11.30;99.90
11005;DHT22;5555;59.622;16.556;2023-05-07T09:24:49;11.30;99.90
11005;DHT22;5555;59.622;16.556;2023-05-07T09:27:16;10.90;99.90
11005;DHT22;5555;59.622;16.556;2023-05-07T09:29:43;10.90;99.90
11005;DHT22;5555;59.622;16.556;2023-05-07T09:32:09;11.20;99.40
11005;DHT22;5555;59.622;16.556;2023-05-07T09:34:36;11.10;99.90
11005;DHT22;5555;59.622;16.556;2023-05-07T09:37:03;11.40;99.40
11005;DHT22;5555;59.622;16.556;2023-05-07T09:39:39;11.10;99.80
11005;DHT22;5555;59.622;16.556;2023-05-07T09:42:06;11.50;99.00
11005;DHT22;5555;59.622;16.556;2023-05-07T09:44:33;11.70;98.80
11005;DHT22;5555;59.622;16.556;2023-05-07T09:47:00;11.90;97.80
11005;DHT22;5555;59.622;16.556;2023-05-07T09:49:29;12.00;98.00
11005;DHT22;5555;59.622;16.556;2023-05-07T09:51:55;11.90;98.60
11005;DHT22;5555;59.622;16.556;2023-05-07T09:54:22;12.10;98.70
11005;DHT22;5555;59.622;16.556;2023-05-07T09:56:48;12.30;98.20
11005;DHT22;5555;59.622;16.556;2023-05-07T09:59:15;12.40;97.10
11005;DHT22;5555;59.622;16.556;2023-05-07T10:01:42;12.40;95.80
11005;DHT22;5555;59.622;16.556;2023-05-07T10:04:09;12.30;96.30
11005;DHT22;5555;59.622;16.556;2023-05-07T10:06:35;12.60;97.00
11005;DHT22;5555;59.622;16.556;2023-05-07T10:09:02;12.60;95.20
11005;DHT22;5555;59.622;16.556;2023-05-07T10:11:29;12.20;96.20
11005;DHT22;5555;59.622;16.556;2023-05-07T10:13:55;12.70;96.10
11005;DHT22;5555;59.622;16.556;2023-05-07T10:16:21;13.10;95.70
11005;DHT22;5555;59.622;16.556;2023-05-07T10:18:47;12.90;95.80
11005;DHT22;5555;59.622;16.556;2023-05-07T10:21:21;13.10;95.60
11005;DHT22;5555;59.622;16.556;2023-05-07T10:23:58;13.00;93.80
11005;DHT22;5555;59.622;16.556;2023-05-07T10:26:25;12.80;94.40
11005;DHT22;5555;59.622;16.556;2023-05-07T10:29:06;13.30;94.40
11005;DHT22;5555;59.622;16.556;2023-05-07T10:34:21;13.60;92.80
11005;DHT22;5555;59.622;16.556;2023-05-07T10:36:48;13.60;95.10
11005;DHT22;5555;59.622;16.556;2023-05-07T10:39:15;13.50;93.80
11005;DHT22;5555;59.622;16.556;2023-05-07T10:41:41;13.90;92.00
11005;DHT22;5555;59.622;16.556;2023-05-07T10:44:07;13.90;93.70
11005;DHT22;5555;59.622;16.556;2023-05-07T10:46:32;14.20;92.20
11005;DHT22;5555;59.622;16.556;2023-05-07T10:51:27;14.40;91.00
11005;DHT22;5555;59.622;16.556;2023-05-07T10:56:35;14.20;90.90
11005;DHT22;5555;59.622;16.556;2023-05-07T11:02:00;13.90;91.10
11005;DHT22;5555;59.622;16.556;2023-05-07T11:04:32;14.40;90.90
11005;DHT22;5555;59.622;16.556;2023-05-07T11:07:23;14.70;88.90
11005;DHT22;5555;59.622;16.556;2023-05-07T11:09:55;14.50;87.80
11005;DHT22;5555;59.622;16.556;2023-05-07T11:15:02;15.20;85.20
11005;DHT22;5555;59.622;16.556;2023-05-07T11:17:28;14.70;85.40
11005;DHT22;5555;59.622;16.556;2023-05-07T11:19:57;15.20;85.80
11005;DHT22;5555;59.622;16.556;2023-05-07T11:25:02;16.10;82.00
11005;DHT22;5555;59.622;16.556;2023-05-07T11:27:29;16.30;80.70
11005;DHT22;5555;59.622;16.556;2023-05-07T11:29:55;16.30;81.80
11005;DHT22;5555;59.622;16.556;2023-05-07T11:32:27;16.30;81.30
11005;DHT22;5555;59.622;16.556;2023-05-07T11:34:58;17.00;79.70
11005;DHT22;5555;59.622;16.556;2023-05-07T11:37:25;17.00;80.30
11005;DHT22;5555;59.622;16.556;2023-05-07T11:40:02;17.20;78.00
11005;DHT22;5555;59.622;16.556;2023-05-07T11:42:31;16.70;76.40
11005;DHT22;5555;59.622;16.556;2023-05-07T11:44:57;16.50;79.40
11005;DHT22;5555;59.622;16.556;2023-05-07T11:47:24;16.60;78.10
11005;DHT22;5555;59.622;16.556;2023-05-07T11:49:54;17.40;78.60
11005;DHT22;5555;59.622;16.556;2023-05-07T11:52:22;18.00;76.70
11005;DHT22;5555;59.622;16.556;2023-05-07T11:54:52;17.80;73.50
11005;DHT22;5555;59.622;16.556;2023-05-07T11:57:19;18.20;75.60
11005;DHT22;5555;59.622;16.556;2023-05-07T11:59:45;17.70;75.80
11005;DHT22;5555;59.622;16.556;2023-05-07T12:02:14;18.40;73.90
11005;DHT22;5555;59.622;16.556;2023-05-07T12:04:40;18.20;75.90
11005;DHT22;5555;59.622;16.556;2023-05-07T12:07:14;17.90;75.30
11005;DHT22;5555;59.622;16.556;2023-05-07T12:09:41;18.10;74.00
11005;DHT22;5555;59.622;16.556;2023-05-07T12:12:07;18.50;71.60
11005;DHT22;5555;59.622;16.556;2023-05-07T12:14:38;19.30;67.60
11005;DHT22;5555;59.622;16.556;2023-05-07T12:17:04;19.40;69.00
11005;DHT22;5555;59.622;16.556;2023-05-07T12:19:31;19.60;68.30
11005;DHT22;5555;59.622;16.556;2023-05-07T12:21:57;20.70;65.60
11005;DHT22;5555;59.622;16.556;2023-05-07T12:24:23;21.40;62.20
11005;DHT22;5555;59.622;16.556;2023-05-07T12:26:49;20.50;63.20
11005;DHT22;5555;59.622;16.556;2023-05-07T12:29:14;20.30;65.20
11005;DHT22;5555;59.622;16.556;2023-05-07T12:31:41;20.20;61.20
11005;DHT22;5555;59.622;16.556;2023-05-07T12:34:07;20.10;62.40
11005;DHT22;5555;59.622;16.556;2023-05-07T12:36:40;20.30;61.80
11005;DHT22;5555;59.622;16.556;2023-05-07T12:39:09;20.40;61.00
11005;DHT22;5555;59.622;16.556;2023-05-07T12:41:54;20.60;59.30
11005;DHT22;5555;59.622;16.556;2023-05-07T12:44:33;20.20;63.50
11005;DHT22;5555;59.622;16.556;2023-05-07T12:47:01;19.70;59.30
11005;DHT22;5555;59.622;16.556;2023-05-07T12:49:27;19.30;62.70
11005;DHT22;5555;59.622;16.556;2023-05-07T12:51:53;19.80;62.00
11005;DHT22;5555;59.622;16.556;2023-05-07T12:54:37;18.70;64.50
11005;DHT22;5555;59.622;16.556;2023-05-07T12:57:05;19.30;59.10
11005;DHT22;5555;59.622;16.556;2023-05-07T12:59:39;19.00;60.40
11005;DHT22;5555;59.622;16.556;2023-05-07T13:02:06;19.10;58.20
11005;DHT22;5555;59.622;16.556;2023-05-07T13:04:33;19.60;59.20
11005;DHT22;5555;59.622;16.556;2023-05-07T13:06:59;19.00;59.50
11005;DHT22;5555;59.622;16.556;2023-05-07T13:09:25;19.70;58.40
11005;DHT22;5555;59.622;16.556;2023-05-07T13:11:50;19.20;59.90
11005;DHT22;5555;59.622;16.556;2023-05-07T13:14:16;19.90;59.50
11005;DHT22;5555;59.622;16.556;2023-05-07T13:16:42;20.00;57.10
11005;DHT22;5555;59.622;16.556;2023-05-07T13:19:07;19.80;58.90
11005;DHT22;5555;59.622;16.556;2023-05-07T13:21:33;20.40;58.40
11005;DHT22;5555;59.622;16.556;2023-05-07T13:23:59;20.70;56.80
11005;DHT22;5555;59.622;16.556;2023-05-07T13:26:25;21.50;56.70
11005;DHT22;5555;59.622;16.556;2023-05-07T13:28:54;21.30;55.80
11005;DHT22;5555;59.622;16.556;2023-05-07T13:31:20;20.80;56.80
11005;DHT22;5555;59.622;16.556;2023-05-07T13:33:46;20.30;59.10
11005;DHT22;5555;59.622;16.556;2023-05-07T13:36:12;21.60;54.70
11005;DHT22;5555;59.622;16.556;2023-05-07T13:38:38;20.90;54.30
11005;DHT22;5555;59.622;16.556;2023-05-07T13:41:04;21.10;51.30
11005;DHT22;5555;59.622;16.556;2023-05-07T13:43:30;20.10;49.30
11005;DHT22;5555;59.622;16.556;2023-05-07T13:45:57;20.50;49.70
11005;DHT22;5555;59.622;16.556;2023-05-07T13:48:22;20.50;52.00
11005;DHT22;5555;59.622;16.556;2023-05-07T13:50:48;20.60;49.10
11005;DHT22;5555;59.622;16.556;2023-05-07T13:53:13;20.10;47.50
11005;DHT22;5555;59.622;16.556;2023-05-07T13:55:43;21.00;51.10
11005;DHT22;5555;59.622;16.556;2023-05-07T13:58:09;21.60;48.80
11005;DHT22;5555;59.622;16.556;2023-05-07T14:00:34;21.00;47.00
11005;DHT22;5555;59.622;16.556;2023-05-07T14:03:00;19.70;48.90
11005;DHT22;5555;59.622;16.556;2023-05-07T14:05:26;20.00;47.70
11005;DHT22;5555;59.622;16.556;2023-05-07T14:07:55;20.50;47.20
11005;DHT22;5555;59.622;16.556;2023-05-07T14:10:22;19.90;48.60
11005;DHT22;5555;59.622;16.556;2023-05-07T14:12:47;19.50;48.90
11005;DHT22;5555;59.622;16.556;2023-05-07T14:15:14;19.30;48.70
11005;DHT22;5555;59.622;16.556;2023-05-07T14:17:40;19.30;49.30
11005;DHT22;5555;59.622;16.556;2023-05-07T14:20:06;20.00;49.10
11005;DHT22;5555;59.622;16.556;2023-05-07T14:22:32;20.90;49.90
11005;DHT22;5555;59.622;16.556;2023-05-07T14:24:58;21.50;47.40
11005;DHT22;5555;59.622;16.556;2023-05-07T14:27:23;21.80;48.80
11005;DHT22;5555;59.622;16.556;2023-05-07T14:29:49;21.10;50.10
11005;DHT22;5555;59.622;16.556;2023-05-07T14:32:17;20.70;51.30
11005;DHT22;5555;59.622;16.556;2023-05-07T14:34:43;20.90;48.00
11005;DHT22;5555;59.622;16.556;2023-05-07T14:37:09;21.60;46.20
11005;DHT22;5555;59.622;16.556;2023-05-07T14:39:35;22.40;45.60
11005;DHT22;5555;59.622;16.556;2023-05-07T14:42:01;22.90;44.40
11005;DHT22;5555;59.622;16.556;2023-05-07T14:44:27;23.70;43.60
11005;DHT22;5555;59.622;16.556;2023-05-07T14:46:53;22.80;44.10
11005;DHT22;5555;59.622;16.556;2023-05-07T14:49:18;23.00;44.60
11005;DHT22;5555;59.622;16.556;2023-05-07T14:51:45;23.00;43.20
11005;DHT22;5555;59.622;16.556;2023-05-07T14:54:11;22.60;43.40
11005;DHT22;5555;59.622;16.556;2023-05-07T14:56:37;23.20;42.30
11005;DHT22;5555;59.622;16.556;2023-05-07T14:59:03;21.30;42.90
11005;DHT22;5555;59.622;16.556;2023-05-07T15:01:29;20.20;44.80
11005;DHT22;5555;59.622;16.556;2023-05-07T15:03:54;21.10;43.20
11005;DHT22;5555;59.622;16.556;2023-05-07T15:06:21;20.70;43.60
11005;DHT22;5555;59.622;16.556;2023-05-07T15:08:47;22.30;43.90
11005;DHT22;5555;59.622;16.556;2023-05-07T15:11:14;22.40;42.00
11005;DHT22;5555;59.622;16.556;2023-05-07T15:13:42;21.80;42.50
11005;DHT22;5555;59.622;16.556;2023-05-07T15:16:08;21.10;43.70
11005;DHT22;5555;59.622;16.556;2023-05-07T15:18:33;22.00;43.60
11005;DHT22;5555;59.622;16.556;2023-05-07T15:20:59;21.90;43.30
11005;DHT22;5555;59.622;16.556;2023-05-07T15:23:25;22.70;42.30
11005;DHT22;5555;59.622;16.556;2023-05-07T15:25:52;23.30;41.30
11005;DHT22;5555;59.622;16.556;2023-05-07T15:28:17;23.40;43.20
11005;DHT22;5555;59.622;16.556;2023-05-07T15:30:43;22.60;41.60
11005;DHT22;5555;59.622;16.556;2023-05-07T15:33:09;22.80;40.40
11005;DHT22;5555;59.622;16.556;2023-05-07T15:35:35;23.40;41.20
11005;DHT22;5555;59.622;16.556;2023-05-07T15:38:00;23.80;41.40
11005;DHT22;5555;59.622;16.556;2023-05-07T15:40:29;22.90;40.60
11005;DHT22;5555;59.622;16.556;2023-05-07T15:42:56;23.70;40.40
11005;DHT22;5555;59.622;16.556;2023-05-07T15:45:22;24.00;41.10
11005;DHT22;5555;59.622;16.556;2023-05-07T15:47:48;24.70;39.60
11005;DHT22;5555;59.622;16.556;2023-05-07T15:50:14;24.00;38.90
11005;DHT22;5555;59.622;16.556;2023-05-07T15:52:39;24.40;39.10
11005;DHT22;5555;59.622;16.556;2023-05-07T15:55:07;25.40;39.00